sensor_id;sensor_type;location;lat;lon;timestamp;pressure;altitude;pressure_sealevel;temperature;humidity
43488;BME280;29078;41.932;25.554;2023-02-18T00:00:10;100277.38;;;6.84;49.68
43488;BME280;29078;41.932;25.554;2023-02-18T00:02:36;100344.59;;;7.35;50.28
43488;BME280;29078;41.932;25.554;2023-02-18T00:05:02;100346.38;;;7.34;50.64
43488;BME280;29078;41.932;25.554;2023-02-18T00:07:27;100332.41;;;7.05;50.29
43488;BME280;29078;41.932;25.554;2023-02-18T00:09:53;100335.59;;;7.18;49.86
43488;BME280;29078;41.932;25.554;2023-02-18T00:12:18;100286.50;;;6.90;50.26
43488;BME280;29078;41.932;25.554;2023-02-18T00:14:44;100269.06;;;6.69;50.30
43488;BME280;29078;41.932;25.554;2023-02-18T00:17:09;100227.31;;;6.47;50.39
43488;BME280;29078;41.932;25.554;2023-02-18T00:19:34;100306.84;;;7.07;50.32
43488;BME280;29078;41.932;25.554;2023-02-18T00:22:00;100245.84;;;6.65;50.28
43488;BME280;29078;41.932;25.554;2023-02-18T00:24:25;100228.00;;;6.59;50.33
43488;BME280;29078;41.932;25.554;2023-02-18T00:26:51;100339.34;;;7.25;50.33
43488;BME280;29078;41.932;25.554;2023-02-18T00:29:17;100239.34;;;6.59;50.54
43488;BME280;29078;41.932;25.554;2023-02-18T00:31:43;100272.59;;;6.49;50.70
43488;BME280;29078;41.932;25.554;2023-02-18T00:34:09;100347.34;;;7.14;50.76
43488;BME280;29078;41.932;25.554;2023-02-18T00:36:34;100188.75;;;6.28;50.82
43488;BME280;29078;41.932;25.554;2023-02-18T00:39:03;100292.84;;;6.78;51.15
43488;BME280;29078;41.932;25.554;2023-02-18T00:41:29;100185.00;;;6.21;51.25
43488;BME280;29078;41.932;25.554;2023-02-18T00:43:55;100256.88;;;6.68;51.31
43488;BME280;29078;41.932;25.554;2023-02-18T00:46:21;100321.63;;;7.08;51.22
43488;BME280;29078;41.932;25.554;2023-02-18T00:48:47;100264.66;;;6.70;51.58
43488;BME280;29078;41.932;25.554;2023-02-18T00:51:12;100267.84;;;6.83;51.60
43488;BME280;29078;41.932;25.554;2023-02-18T00:53:38;100160.16;;;6.16;51.44
43488;BME280;29078;41.932;25.554;2023-02-18T00:56:04;100181.56;;;6.21;51.92
43488;BME280;29078;41.932;25.554;2023-02-18T00:58:30;100256.50;;;6.73;52.12
43488;BME280;29078;41.932;25.554;2023-02-18T01:00:56;100202.31;;;6.43;52.26
43488;BME280;29078;41.932;25.554;2023-02-18T01:03:21;100192.63;;;6.34;52.19
43488;BME280;29078;41.932;25.554;2023-02-18T01:05:48;100279.75;;;6.97;51.99
43488;BME280;29078;41.932;25.554;2023-02-18T01:08:15;100275.88;;;6.91;52.31
43488;BME280;29078;41.932;25.554;2023-02-18T01:10:43;100277.13;;;6.97;52.48
43488;BME280;29078;41.932;25.554;2023-02-18T01:13:09;100269.66;;;6.92;52.58
43488;BME280;29078;41.932;25.554;2023-02-18T01:15:36;100254.31;;;6.78;52.31
43488;BME280;29078;41.932;25.554;2023-02-18T01:18:02;100169.72;;;6.36;52.46
43488;BME280;29078;41.932;25.554;2023-02-18T01:20:27;100128.28;;;6.11;52.12
43488;BME280;29078;41.932;25.554;2023-02-18T01:22:53;100101.47;;;5.97;52.53
43488;BME280;29078;41.932;25.554;2023-02-18T01:25:18;100065.13;;;5.43;52.92
43488;BME280;29078;41.932;25.554;2023-02-18T01:27:44;100200.25;;;6.56;52.97
43488;BME280;29078;41.932;25.554;2023-02-18T01:30:13;100234.16;;;6.79;52.50
43488;BME280;29078;41.932;25.554;2023-02-18T01:32:39;100194.59;;;6.51;52.29
43488;BME280;29078;41.932;25.554;2023-02-18T01:35:05;100215.88;;;6.67;52.42
43488;BME280;29078;41.932;25.554;2023-02-18T01:37:31;100171.25;;;6.38;52.39
43488;BME280;29078;41.932;25.554;2023-02-18T01:39:56;100095.13;;;6.00;52.05
43488;BME280;29078;41.932;25.554;2023-02-18T01:42:25;100164.34;;;6.37;52.53
43488;BME280;29078;41.932;25.554;2023-02-18T01:44:52;100140.16;;;6.24;52.16
43488;BME280;29078;41.932;25.554;2023-02-18T01:47:18;100109.38;;;6.07;51.99
43488;BME280;29078;41.932;25.554;2023-02-18T01:49:48;100143.19;;;6.20;51.76
43488;BME280;29078;41.932;25.554;2023-02-18T01:52:24;100175.94;;;6.45;51.68
43488;BME280;29078;41.932;25.554;2023-02-18T01:54:55;99949.41;;;5.09;51.97
43488;BME280;29078;41.932;25.554;2023-02-18T01:57:32;100207.31;;;6.65;52.25
43488;BME280;29078;41.932;25.554;2023-02-18T02:00:06;100208.13;;;6.66;51.93
43488;BME280;29078;41.932;25.554;2023-02-18T02:02:34;100219.31;;;6.68;51.74
43488;BME280;29078;41.932;25.554;2023-02-18T02:05:01;100170.25;;;6.30;52.48
43488;BME280;29078;41.932;25.554;2023-02-18T02:07:28;99962.63;;;5.07;52.11
43488;BME280;29078;41.932;25.554;2023-02-18T02:09:55;100209.78;;;6.57;52.63
43488;BME280;29078;41.932;25.554;2023-02-18T02:20:41;100209.78;;;6.57;52.62
43488;BME280;29078;41.932;25.554;2023-02-18T02:23:46;100213.66;;;6.53;52.77
43488;BME280;29078;41.932;25.554;2023-02-18T02:34:43;100084.69;;;5.79;52.76
43488;BME280;29078;41.932;25.554;2023-02-18T02:37:21;100087.72;;;5.74;53.10
43488;BME280;29078;41.932;25.554;2023-02-18T02:40:03;100127.69;;;5.97;52.98
43488;BME280;29078;41.932;25.554;2023-02-18T02:45:50;100184.19;;;6.30;53.43
43488;BME280;29078;41.932;25.554;2023-02-18T02:48:57;100166.38;;;6.15;53.37
43488;BME280;29078;41.932;25.554;2023-02-18T02:54:20;100210.31;;;6.42;53.32
43488;BME280;29078;41.932;25.554;2023-02-18T02:56:46;100194.66;;;6.21;52.69
43488;BME280;29078;41.932;25.554;2023-02-18T02:59:16;100221.50;;;6.44;52.78
43488;BME280;29078;41.932;25.554;2023-02-18T03:10:17;100222.97;;;6.27;52.98
43488;BME280;29078;41.932;25.554;2023-02-18T03:13:16;100226.69;;;6.24;53.17
43488;BME280;29078;41.932;25.554;2023-02-18T03:15:54;100176.56;;;5.87;53.07
43488;BME280;29078;41.932;25.554;2023-02-18T03:18:37;100186.88;;;6.00;53.51
43488;BME280;29078;41.932;25.554;2023-02-18T03:21:24;100225.72;;;6.25;53.30
43488;BME280;29078;41.932;25.554;2023-02-18T03:23:58;100222.41;;;6.23;52.48
43488;BME280;29078;41.932;25.554;2023-02-18T03:26:26;100120.50;;;5.69;52.57
43488;BME280;29078;41.932;25.554;2023-02-18T03:28:54;100054.06;;;5.30;52.51
43488;BME280;29078;41.932;25.554;2023-02-18T03:31:24;100209.91;;;5.96;52.69
43488;BME280;29078;41.932;25.554;2023-02-18T03:34:16;100080.03;;;5.42;52.61
43488;BME280;29078;41.932;25.554;2023-02-18T03:36:43;100144.38;;;5.75;52.72
43488;BME280;29078;41.932;25.554;2023-02-18T03:39:14;100211.75;;;6.15;52.69
43488;BME280;29078;41.932;25.554;2023-02-18T03:41:40;100088.19;;;5.49;52.38
43488;BME280;29078;41.932;25.554;2023-02-18T03:44:07;100013.97;;;4.99;52.34
43488;BME280;29078;41.932;25.554;2023-02-18T03:46:34;100177.84;;;5.93;52.99
43488;BME280;29078;41.932;25.554;2023-02-18T03:49:01;100201.13;;;6.17;52.74
43488;BME280;29078;41.932;25.554;2023-02-18T03:51:27;100206.38;;;6.17;52.68
43488;BME280;29078;41.932;25.554;2023-02-18T03:53:53;100150.50;;;5.86;52.38
43488;BME280;29078;41.932;25.554;2023-02-18T03:56:19;100207.88;;;6.10;52.87
43488;BME280;29078;41.932;25.554;2023-02-18T03:58:44;100075.00;;;5.30;52.49
43488;BME280;29078;41.932;25.554;2023-02-18T04:01:10;100077.75;;;5.28;52.81
43488;BME280;29078;41.932;25.554;2023-02-18T04:03:36;100138.13;;;5.57;52.60
43488;BME280;29078;41.932;25.554;2023-02-18T04:06:01;100234.06;;;6.00;52.54
43488;BME280;29078;41.932;25.554;2023-02-18T04:08:27;100157.00;;;5.61;52.64
43488;BME280;29078;41.932;25.554;2023-02-18T04:10:52;100060.81;;;5.02;52.51
43488;BME280;29078;41.932;25.554;2023-02-18T04:13:18;100071.41;;;5.00;53.05
43488;BME280;29078;41.932;25.554;2023-02-18T04:15:44;100141.53;;;5.48;52.79
43488;BME280;29078;41.932;25.554;2023-02-18T04:18:10;100115.13;;;5.30;52.93
43488;BME280;29078;41.932;25.554;2023-02-18T04:20:36;100148.50;;;5.38;52.67
43488;BME280;29078;41.932;25.554;2023-02-18T04:23:02;100243.44;;;6.02;52.52
43488;BME280;29078;41.932;25.554;2023-02-18T04:25:28;100212.81;;;5.82;52.59
43488;BME280;29078;41.932;25.554;2023-02-18T04:27:53;100086.88;;;5.13;52.84
43488;BME280;29078;41.932;25.554;2023-02-18T04:30:19;100196.06;;;5.64;52.71
43488;BME280;29078;41.932;25.554;2023-02-18T04:32:44;100164.41;;;5.46;52.69
43488;BME280;29078;41.932;25.554;2023-02-18T04:35:09;100129.22;;;5.18;53.05
43488;BME280;29078;41.932;25.554;2023-02-18T04:37:35;100149.34;;;5.38;52.74
43488;BME280;29078;41.932;25.554;2023-02-18T04:40:00;100137.72;;;5.31;52.75
43488;BME280;29078;41.932;25.554;2023-02-18T04:42:26;100197.44;;;5.68;52.54
43488;BME280;29078;41.932;25.554;2023-02-18T04:44:51;100186.53;;;5.63;52.59
43488;BME280;29078;41.932;25.554;2023-02-18T04:47:17;100174.47;;;5.51;52.74
43488;BME280;29078;41.932;25.554;2023-02-18T04:49:42;100244.84;;;5.86;53.26
43488;BME280;29078;41.932;25.554;2023-02-18T04:52:07;100158.53;;;5.33;53.03
43488;BME280;29078;41.932;25.554;2023-02-18T04:54:33;100169.63;;;5.46;52.91
43488;BME280;29078;41.932;25.554;2023-02-18T04:56:58;100166.44;;;5.42;53.10
43488;BME280;29078;41.932;25.554;2023-02-18T04:59:24;100133.56;;;5.29;52.65
43488;BME280;29078;41.932;25.554;2023-02-18T05:01:49;100118.16;;;5.15;53.00
43488;BME280;29078;41.932;25.554;2023-02-18T05:04:15;100248.88;;;5.90;53.12
43488;BME280;29078;41.932;25.554;2023-02-18T05:06:42;100154.25;;;5.32;53.42
43488;BME280;29078;41.932;25.554;2023-02-18T05:09:07;100122.13;;;5.09;53.15
43488;BME280;29078;41.932;25.554;2023-02-18T05:11:33;100199.00;;;5.50;53.17
43488;BME280;29078;41.932;25.554;2023-02-18T05:13:58;100172.00;;;5.28;52.81
43488;BME280;29078;41.932;25.554;2023-02-18T05:16:24;100191.81;;;5.42;53.40
43488;BME280;29078;41.932;25.554;2023-02-18T05:18:49;100190.63;;;5.56;53.30
43488;BME280;29078;41.932;25.554;2023-02-18T05:21:14;100171.94;;;5.39;52.76
43488;BME280;29078;41.932;25.554;2023-02-18T05:23:40;100175.56;;;5.48;52.89
43488;BME280;29078;41.932;25.554;2023-02-18T05:26:05;100161.03;;;5.34;53.35
43488;BME280;29078;41.932;25.554;2023-02-18T05:28:31;100111.22;;;5.04;52.74
43488;BME280;29078;41.932;25.554;2023-02-18T05:30:56;100025.94;;;4.50;52.94
43488;BME280;29078;41.932;25.554;2023-02-18T05:33:22;100189.88;;;5.44;53.11
43488;BME280;29078;41.932;25.554;2023-02-18T05:35:48;100267.59;;;5.85;53.02
43488;BME280;29078;41.932;25.554;2023-02-18T05:38:13;100156.16;;;5.30;53.04
43488;BME280;29078;41.932;25.554;2023-02-18T05:40:39;100201.50;;;5.51;52.99
43488;BME280;29078;41.932;25.554;2023-02-18T05:43:04;100253.41;;;5.88;52.86
43488;BME280;29078;41.932;25.554;2023-02-18T05:45:30;100236.47;;;5.92;52.73
43488;BME280;29078;41.932;25.554;2023-02-18T05:47:55;100103.56;;;5.12;52.49
43488;BME280;29078;41.932;25.554;2023-02-18T05:50:21;100195.22;;;5.63;52.69
43488;BME280;29078;41.932;25.554;2023-02-18T05:52:46;100203.25;;;5.71;52.77
43488;BME280;29078;41.932;25.554;2023-02-18T05:55:11;100225.50;;;5.98;52.41
43488;BME280;29078;41.932;25.554;2023-02-18T05:57:37;100252.06;;;6.14;52.64
43488;BME280;29078;41.932;25.554;2023-02-18T06:00:04;100254.31;;;6.28;52.76
43488;BME280;29078;41.932;25.554;2023-02-18T06:02:29;100181.91;;;5.76;52.40
43488;BME280;29078;41.932;25.554;2023-02-18T06:04:55;100190.75;;;5.85;52.22
43488;BME280;29078;41.932;25.554;2023-02-18T06:07:20;100250.06;;;6.37;52.29
43488;BME280;29078;41.932;25.554;2023-02-18T06:09:45;100124.31;;;5.55;52.21
43488;BME280;29078;41.932;25.554;2023-02-18T06:12:11;100240.22;;;6.29;52.14
43488;BME280;29078;41.932;25.554;2023-02-18T06:14:37;100197.81;;;6.15;52.19
43488;BME280;29078;41.932;25.554;2023-02-18T06:17:07;100248.03;;;6.60;51.87
43488;BME280;29078;41.932;25.554;2023-02-18T06:19:32;100170.50;;;6.17;51.81
43488;BME280;29078;41.932;25.554;2023-02-18T06:21:59;100251.78;;;6.67;52.29
43488;BME280;29078;41.932;25.554;2023-02-18T06:24:25;100209.47;;;6.31;51.98
43488;BME280;29078;41.932;25.554;2023-02-18T06:26:50;100230.06;;;6.55;52.34
43488;BME280;29078;41.932;25.554;2023-02-18T06:29:15;100180.75;;;6.40;52.15
43488;BME280;29078;41.932;25.554;2023-02-18T06:31:41;100218.63;;;6.66;52.03
43488;BME280;29078;41.932;25.554;2023-02-18T06:34:06;100160.72;;;6.29;51.62
43488;BME280;29078;41.932;25.554;2023-02-18T06:36:32;100201.69;;;6.70;51.50
43488;BME280;29078;41.932;25.554;2023-02-18T06:38:57;100243.13;;;6.95;51.78
43488;BME280;29078;41.932;25.554;2023-02-18T06:41:23;100232.06;;;7.11;51.41
43488;BME280;29078;41.932;25.554;2023-02-18T06:43:49;100151.25;;;6.66;51.78
43488;BME280;29078;41.932;25.554;2023-02-18T06:46:15;100179.72;;;7.00;52.06
43488;BME280;29078;41.932;25.554;2023-02-18T06:48:41;100121.31;;;6.69;51.77
43488;BME280;29078;41.932;25.554;2023-02-18T06:51:06;100157.75;;;7.01;51.85
43488;BME280;29078;41.932;25.554;2023-02-18T06:53:31;100166.03;;;7.06;51.81
43488;BME280;29078;41.932;25.554;2023-02-18T06:55:57;100131.66;;;6.80;51.33
43488;BME280;29078;41.932;25.554;2023-02-18T06:58:22;100205.94;;;7.48;51.50
43488;BME280;29078;41.932;25.554;2023-02-18T07:00:48;100134.91;;;7.21;51.48
43488;BME280;29078;41.932;25.554;2023-02-18T07:03:14;100150.22;;;7.25;51.45
43488;BME280;29078;41.932;25.554;2023-02-18T07:05:40;100234.00;;;7.94;51.02
43488;BME280;29078;41.932;25.554;2023-02-18T07:08:06;100132.34;;;7.48;51.44
43488;BME280;29078;41.932;25.554;2023-02-18T07:10:31;100221.88;;;8.11;51.06
43488;BME280;29078;41.932;25.554;2023-02-18T07:12:57;100178.94;;;7.93;51.12
43488;BME280;29078;41.932;25.554;2023-02-18T07:15:22;100124.28;;;7.59;50.83
43488;BME280;29078;41.932;25.554;2023-02-18T07:17:51;100140.38;;;7.84;51.21
43488;BME280;29078;41.932;25.554;2023-02-18T07:20:18;100205.34;;;8.38;51.05
43488;BME280;29078;41.932;25.554;2023-02-18T07:22:44;100166.19;;;8.25;50.76
43488;BME280;29078;41.932;25.554;2023-02-18T07:25:09;100133.56;;;8.18;51.16
43488;BME280;29078;41.932;25.554;2023-02-18T07:27:34;99983.75;;;7.36;50.70
43488;BME280;29078;41.932;25.554;2023-02-18T07:30:00;100144.28;;;8.35;51.19
43488;BME280;29078;41.932;25.554;2023-02-18T07:32:25;100185.72;;;8.86;50.51
43488;BME280;29078;41.932;25.554;2023-02-18T07:34:51;100188.16;;;8.97;51.03
43488;BME280;29078;41.932;25.554;2023-02-18T07:37:18;100060.28;;;8.23;50.47
43488;BME280;29078;41.932;25.554;2023-02-18T07:39:44;100105.94;;;8.68;50.48
43488;BME280;29078;41.932;25.554;2023-02-18T07:42:10;100113.38;;;8.72;50.41
43488;BME280;29078;41.932;25.554;2023-02-18T07:44:37;100091.63;;;8.70;50.37
43488;BME280;29078;41.932;25.554;2023-02-18T07:47:04;100106.44;;;8.89;50.31
43488;BME280;29078;41.932;25.554;2023-02-18T07:49:29;100152.59;;;9.19;50.40
43488;BME280;29078;41.932;25.554;2023-02-18T07:51:55;100100.13;;;9.00;50.22
43488;BME280;29078;41.932;25.554;2023-02-18T07:54:20;100171.59;;;9.56;50.36
43488;BME280;29078;41.932;25.554;2023-02-18T07:56:46;100013.94;;;8.66;50.35
43488;BME280;29078;41.932;25.554;2023-02-18T07:59:12;100107.34;;;9.23;50.29
43488;BME280;29078;41.932;25.554;2023-02-18T08:01:38;100142.63;;;9.56;50.43
43488;BME280;29078;41.932;25.554;2023-02-18T08:04:03;100059.91;;;9.23;50.40
43488;BME280;29078;41.932;25.554;2023-02-18T08:06:40;100068.06;;;9.38;50.83
43488;BME280;29078;41.932;25.554;2023-02-18T08:09:07;100169.75;;;10.09;50.17
43488;BME280;29078;41.932;25.554;2023-02-18T08:11:33;100158.06;;;10.19;50.60
43488;BME280;29078;41.932;25.554;2023-02-18T08:13:58;100103.91;;;9.99;50.22
43488;BME280;29078;41.932;25.554;2023-02-18T08:16:24;100039.16;;;9.63;50.40
43488;BME280;29078;41.932;25.554;2023-02-18T08:18:50;100150.59;;;10.41;50.92
43488;BME280;29078;41.932;25.554;2023-02-18T08:21:18;100066.66;;;9.94;50.54
43488;BME280;29078;41.932;25.554;2023-02-18T08:23:44;100141.47;;;10.27;49.91
43488;BME280;29078;41.932;25.554;2023-02-18T08:26:10;100107.16;;;10.35;50.60
43488;BME280;29078;41.932;25.554;2023-02-18T08:28:36;100049.84;;;10.03;50.58
43488;BME280;29078;41.932;25.554;2023-02-18T08:31:02;100138.56;;;10.71;50.33
43488;BME280;29078;41.932;25.554;2023-02-18T08:33:27;100131.97;;;10.83;50.41
43488;BME280;29078;41.932;25.554;2023-02-18T08:35:54;100061.16;;;10.54;50.07
43488;BME280;29078;41.932;25.554;2023-02-18T08:38:20;100063.16;;;10.60;49.76
43488;BME280;29078;41.932;25.554;2023-02-18T08:40:46;100131.81;;;11.25;49.58
43488;BME280;29078;41.932;25.554;2023-02-18T08:43:12;100087.53;;;11.11;49.37
43488;BME280;29078;41.932;25.554;2023-02-18T08:45:38;100103.16;;;11.53;49.35
43488;BME280;29078;41.932;25.554;2023-02-18T08:48:05;100018.34;;;11.07;48.87
43488;BME280;29078;41.932;25.554;2023-02-18T08:50:31;100031.34;;;11.25;48.73
43488;BME280;29078;41.932;25.554;2023-02-18T08:52:57;100112.81;;;11.77;48.51
43488;BME280;29078;41.932;25.554;2023-02-18T08:55:25;100063.63;;;11.60;48.10
43488;BME280;29078;41.932;25.554;2023-02-18T08:57:51;100055.75;;;11.83;48.28
43488;BME280;29078;41.932;25.554;2023-02-18T09:00:18;100111.13;;;12.23;47.77
43488;BME280;29078;41.932;25.554;2023-02-18T09:02:43;100125.28;;;12.38;47.44
43488;BME280;29078;41.932;25.554;2023-02-18T09:05:09;100128.41;;;12.42;47.40
43488;BME280;29078;41.932;25.554;2023-02-18T09:07:36;100103.97;;;12.32;46.84
43488;BME280;29078;41.932;25.554;2023-02-18T09:10:02;100023.72;;;11.77;46.38
43488;BME280;29078;41.932;25.554;2023-02-18T09:12:27;100078.94;;;12.12;46.43
43488;BME280;29078;41.932;25.554;2023-02-18T09:14:53;100091.25;;;12.27;46.42
43488;BME280;29078;41.932;25.554;2023-02-18T09:17:19;100123.41;;;12.47;46.19
43488;BME280;29078;41.932;25.554;2023-02-18T09:19:45;99990.81;;;11.72;46.50
43488;BME280;29078;41.932;25.554;2023-02-18T09:22:10;100078.56;;;12.23;46.08
43488;BME280;29078;41.932;25.554;2023-02-18T09:24:40;100141.84;;;12.63;45.76
43488;BME280;29078;41.932;25.554;2023-02-18T09:27:06;100124.59;;;12.67;45.85
43488;BME280;29078;41.932;25.554;2023-02-18T09:29:32;100102.78;;;12.57;45.28
43488;BME280;29078;41.932;25.554;2023-02-18T09:32:02;100099.63;;;12.62;45.63
43488;BME280;29078;41.932;25.554;2023-02-18T09:34:28;100029.25;;;12.22;45.14
43488;BME280;29078;41.932;25.554;2023-02-18T09:36:53;100119.88;;;12.78;45.22
43488;BME280;29078;41.932;25.554;2023-02-18T09:39:19;100090.28;;;12.74;45.06
43488;BME280;29078;41.932;25.554;2023-02-18T09:41:55;100108.97;;;12.95;44.46
43488;BME280;29078;41.932;25.554;2023-02-18T09:44:26;100111.38;;;13.05;43.54
43488;BME280;29078;41.932;25.554;2023-02-18T09:47:05;100021.31;;;12.59;42.96
43488;BME280;29078;41.932;25.554;2023-02-18T09:49:39;100100.53;;;13.29;42.25
43488;BME280;29078;41.932;25.554;2023-02-18T09:52:11;100032.56;;;12.99;41.46
43488;BME280;29078;41.932;25.554;2023-02-18T09:54:37;100117.22;;;13.53;40.92
43488;BME280;29078;41.932;25.554;2023-02-18T09:57:04;100104.97;;;13.66;40.55
43488;BME280;29078;41.932;25.554;2023-02-18T09:59:31;100027.56;;;13.33;39.46
43488;BME280;29078;41.932;25.554;2023-02-18T10:01:58;100095.13;;;13.96;38.88
43488;BME280;29078;41.932;25.554;2023-02-18T10:04:36;100002.53;;;13.51;37.56
43488;BME280;29078;41.932;25.554;2023-02-18T10:07:04;100070.06;;;13.84;37.02
43488;BME280;29078;41.932;25.554;2023-02-18T10:09:34;100094.69;;;14.29;36.78
43488;BME280;29078;41.932;25.554;2023-02-18T10:12:13;100087.44;;;14.38;35.36
43488;BME280;29078;41.932;25.554;2023-02-18T10:14:40;99962.25;;;13.62;36.04
43488;BME280;29078;41.932;25.554;2023-02-18T10:17:06;100066.56;;;14.35;35.68
43488;BME280;29078;41.932;25.554;2023-02-18T10:19:35;100078.03;;;14.56;35.42
43488;BME280;29078;41.932;25.554;2023-02-18T10:22:03;100056.47;;;14.45;35.39
43488;BME280;29078;41.932;25.554;2023-02-18T10:24:34;100055.25;;;14.47;35.16
43488;BME280;29078;41.932;25.554;2023-02-18T10:27:04;100024.44;;;14.31;35.24
43488;BME280;29078;41.932;25.554;2023-02-18T10:29:30;99999.91;;;14.29;35.17
43488;BME280;29078;41.932;25.554;2023-02-18T10:32:24;100055.44;;;14.67;35.17
43488;BME280;29078;41.932;25.554;2023-02-18T10:37:50;100047.81;;;14.85;34.26
43488;BME280;29078;41.932;25.554;2023-02-18T10:40:45;100044.69;;;15.03;34.52
43488;BME280;29078;41.932;25.554;2023-02-18T10:50:44;100000.41;;;14.89;33.93
43488;BME280;29078;41.932;25.554;2023-02-18T10:53:21;100026.00;;;15.24;33.67
43488;BME280;29078;41.932;25.554;2023-02-18T10:55:50;99950.09;;;14.87;33.74
43488;BME280;29078;41.932;25.554;2023-02-18T10:58:34;100017.44;;;15.36;33.63
43488;BME280;29078;41.932;25.554;2023-02-18T11:01:03;100011.69;;;15.32;33.87
43488;BME280;29078;41.932;25.554;2023-02-18T11:03:42;100001.88;;;15.33;33.68
43488;BME280;29078;41.932;25.554;2023-02-18T11:06:31;99940.38;;;15.08;33.10
43488;BME280;29078;41.932;25.554;2023-02-18T11:08:58;99906.84;;;15.07;33.37
43488;BME280;29078;41.932;25.554;2023-02-18T11:11:32;99965.63;;;15.66;32.81
43488;BME280;29078;41.932;25.554;2023-02-18T11:14:00;99956.03;;;15.85;32.46
43488;BME280;29078;41.932;25.554;2023-02-18T11:16:55;99936.41;;;15.93;31.46
43488;BME280;29078;41.932;25.554;2023-02-18T11:19:35;99986.88;;;16.47;31.19
43488;BME280;29078;41.932;25.554;2023-02-18T11:22:14;99983.38;;;16.60;30.70
43488;BME280;29078;41.932;25.554;2023-02-18T11:24:43;99878.44;;;16.01;30.95
43488;BME280;29078;41.932;25.554;2023-02-18T11:27:30;99970.88;;;16.73;30.51
43488;BME280;29078;41.932;25.554;2023-02-18T11:30:26;99969.22;;;16.79;28.85
43488;BME280;29078;41.932;25.554;2023-02-18T11:33:02;99958.16;;;16.75;29.12
43488;BME280;29078;41.932;25.554;2023-02-18T11:35:31;99914.91;;;16.47;29.78
43488;BME280;29078;41.932;25.554;2023-02-18T11:37:58;99961.03;;;16.74;29.79
43488;BME280;29078;41.932;25.554;2023-02-18T11:40:30;99871.03;;;16.16;29.86
43488;BME280;29078;41.932;25.554;2023-02-18T11:43:13;99929.66;;;16.69;29.88
43488;BME280;29078;41.932;25.554;2023-02-18T11:45:40;99964.47;;;16.94;29.05
43488;BME280;29078;41.932;25.554;2023-02-18T11:48:18;99941.09;;;16.90;28.14
43488;BME280;29078;41.932;25.554;2023-02-18T11:50:50;99915.06;;;16.85;28.54
43488;BME280;29078;41.932;25.554;2023-02-18T11:53:26;99901.72;;;16.85;26.72
43488;BME280;29078;41.932;25.554;2023-02-18T11:55:54;99933.22;;;17.21;28.05
43488;BME280;29078;41.932;25.554;2023-02-18T11:58:20;99929.91;;;17.26;28.18
43488;BME280;29078;41.932;25.554;2023-02-18T12:00:48;99873.19;;;16.86;28.19
43488;BME280;29078;41.932;25.554;2023-02-18T12:03:36;99896.50;;;17.17;27.97
43488;BME280;29078;41.932;25.554;2023-02-18T12:06:10;99888.06;;;17.20;28.10
43488;BME280;29078;41.932;25.554;2023-02-18T12:08:48;99833.22;;;16.79;27.34
43488;BME280;29078;41.932;25.554;2023-02-18T12:11:43;99833.00;;;16.80;28.23
43488;BME280;29078;41.932;25.554;2023-02-18T12:14:16;99899.13;;;17.23;28.69
43488;BME280;29078;41.932;25.554;2023-02-18T12:22:12;99858.19;;;16.98;28.84
43488;BME280;29078;41.932;25.554;2023-02-18T12:25:03;99879.47;;;17.18;28.68
43488;BME280;29078;41.932;25.554;2023-02-18T12:27:39;99809.03;;;16.74;27.90
43488;BME280;29078;41.932;25.554;2023-02-18T12:30:31;99880.25;;;17.25;28.87
43488;BME280;29078;41.932;25.554;2023-02-18T12:57:38;99840.16;;;17.69;29.71
43488;BME280;29078;41.932;25.554;2023-02-18T13:03:04;99845.66;;;17.74;30.50
43488;BME280;29078;41.932;25.554;2023-02-18T13:13:36;99777.72;;;17.39;30.79
43488;BME280;29078;41.932;25.554;2023-02-18T13:16:08;99835.16;;;17.79;31.08
43488;BME280;29078;41.932;25.554;2023-02-18T13:18:40;99767.63;;;17.41;30.88
43488;BME280;29078;41.932;25.554;2023-02-18T13:21:14;99752.75;;;17.27;30.89
43488;BME280;29078;41.932;25.554;2023-02-18T13:24:01;99833.94;;;17.75;30.88
43488;BME280;29078;41.932;25.554;2023-02-18T13:26:31;99790.78;;;17.47;30.74
43488;BME280;29078;41.932;25.554;2023-02-18T13:29:17;99788.38;;;17.39;30.76
43488;BME280;29078;41.932;25.554;2023-02-18T13:34:35;99824.56;;;17.66;30.75
43488;BME280;29078;41.932;25.554;2023-02-18T13:39:59;99762.66;;;17.20;31.07
43488;BME280;29078;41.932;25.554;2023-02-18T13:42:34;99823.34;;;17.62;30.86
43488;BME280;29078;41.932;25.554;2023-02-18T13:45:02;99829.91;;;17.66;30.99
43488;BME280;29078;41.932;25.554;2023-02-18T13:47:46;99829.47;;;17.69;30.93
43488;BME280;29078;41.932;25.554;2023-02-18T13:55:39;99825.69;;;17.84;31.12
43488;BME280;29078;41.932;25.554;2023-02-18T13:58:14;99827.09;;;17.86;30.66
43488;BME280;29078;41.932;25.554;2023-02-18T14:00:47;99737.84;;;17.44;30.91
43488;BME280;29078;41.932;25.554;2023-02-18T14:03:30;99824.69;;;18.03;30.77
43488;BME280;29078;41.932;25.554;2023-02-18T14:05:58;99794.94;;;17.99;30.75
43488;BME280;29078;41.932;25.554;2023-02-18T14:08:35;99820.44;;;18.20;30.44
43488;BME280;29078;41.932;25.554;2023-02-18T14:13:48;99826.44;;;18.34;30.43
43488;BME280;29078;41.932;25.554;2023-02-18T14:16:17;99825.34;;;18.41;30.17
43488;BME280;29078;41.932;25.554;2023-02-18T14:28:41;99814.41;;;18.25;29.87
43488;BME280;29078;41.932;25.554;2023-02-18T14:33:49;99812.41;;;18.20;29.53
43488;BME280;29078;41.932;25.554;2023-02-18T14:41:58;99817.34;;;18.60;29.54
43488;BME280;29078;41.932;25.554;2023-02-18T14:49:47;99770.38;;;18.09;30.05
43488;BME280;29078;41.932;25.554;2023-02-18T14:52:32;99817.53;;;18.40;30.22
43488;BME280;29078;41.932;25.554;2023-02-18T14:55:00;99809.59;;;18.33;30.67
43488;BME280;29078;41.932;25.554;2023-02-18T14:57:49;99822.44;;;18.25;30.58